createdAt,value
2019-06-10T00:00:13.827Z,18.90
2019-06-10T00:02:36.074Z,18.93
2019-06-10T00:05:07.342Z,18.89
2019-06-10T00:07:35.992Z,18.80
2019-06-10T00:10:07.461Z,18.79
2019-06-10T00:12:36.338Z,18.74
2019-06-10T00:15:08.119Z,18.75
2019-06-10T00:17:50.658Z,18.76
2019-06-10T00:20:08.269Z,18.71
2019-06-10T00:22:37.054Z,18.61
2019-06-10T00:25:08.231Z,18.58
2019-06-10T00:27:37.103Z,18.66
2019-06-10T00:30:08.158Z,18.65
2019-06-10T00:32:37.982Z,18.61
2019-06-10T00:35:07.805Z,18.56
2019-06-10T00:37:36.475Z,18.50
2019-06-10T00:40:09.981Z,18.45
2019-06-10T00:42:38.536Z,18.46
2019-06-10T00:45:11.034Z,18.48
2019-06-10T00:47:37.603Z,18.60
2019-06-10T00:50:12.184Z,18.73
2019-06-10T00:52:41.458Z,18.74
2019-06-10T00:55:09.977Z,18.68
2019-06-10T00:57:38.956Z,18.69
2019-06-10T01:00:18.231Z,18.72
2019-06-10T01:02:40.931Z,18.62
2019-06-10T01:05:09.875Z,18.60
2019-06-10T01:07:41.371Z,18.51
2019-06-10T01:10:12.899Z,18.52
2019-06-10T01:12:41.429Z,18.48
2019-06-10T01:15:13.066Z,18.42
2019-06-10T01:17:41.748Z,18.40
2019-06-10T01:20:12.841Z,18.36
2019-06-10T01:22:41.184Z,18.26
2019-06-10T01:25:12.379Z,18.25
2019-06-10T01:27:41.095Z,18.23
2019-06-10T01:30:17.945Z,18.16
2019-06-10T01:32:41.652Z,18.18
2019-06-10T01:35:11.545Z,18.15
2019-06-10T01:37:41.592Z,18.28
2019-06-10T01:40:13.037Z,18.19
2019-06-10T01:42:41.286Z,18.22
2019-06-10T01:45:12.471Z,18.16
2019-06-10T01:47:41.660Z,18.14
2019-06-10T01:50:13.766Z,18.20
2019-06-10T01:52:41.175Z,18.26
2019-06-10T01:55:12.298Z,18.22
2019-06-10T01:57:41.281Z,18.20
2019-06-10T02:00:17.048Z,18.13
2019-06-10T02:02:44.745Z,17.94
2019-06-10T02:05:14.551Z,17.85
2019-06-10T02:07:42.544Z,17.80
2019-06-10T02:10:12.414Z,17.81
2019-06-10T02:12:41.669Z,17.86
2019-06-10T02:15:13.512Z,17.86
2019-06-10T02:17:41.846Z,17.86
2019-06-10T02:20:13.886Z,17.81
2019-06-10T02:22:41.290Z,17.80
2019-06-10T02:25:10.981Z,17.86
2019-06-10T02:27:41.501Z,17.84
2019-06-10T02:30:20.581Z,17.86
2019-06-10T02:32:42.875Z,17.86
2019-06-10T02:35:23.056Z,17.94
2019-06-10T02:37:44.356Z,17.86
2019-06-10T02:40:16.694Z,17.85
2019-06-10T02:42:44.896Z,17.91
2019-06-10T02:45:17.999Z,17.79
2019-06-10T02:47:44.578Z,17.74
2019-06-10T02:50:18.425Z,17.71
2019-06-10T02:52:44.641Z,17.65
2019-06-10T02:55:15.659Z,17.66
2019-06-10T02:57:45.004Z,17.65
2019-06-10T03:00:20.942Z,17.71
2019-06-10T03:02:45.286Z,17.67
2019-06-10T03:05:16.814Z,17.79
2019-06-10T03:07:44.883Z,17.79
2019-06-10T03:10:13.896Z,17.88
2019-06-10T03:12:42.540Z,18.00
2019-06-10T03:15:12.632Z,18.17
2019-06-10T03:17:42.939Z,18.54
2019-06-10T03:20:12.290Z,19.13
2019-06-10T03:22:42.350Z,19.85
2019-06-10T03:25:13.176Z,20.56
2019-06-10T03:27:42.406Z,21.28
2019-06-10T03:30:17.205Z,22.03
2019-06-10T03:32:46.902Z,22.46
2019-06-10T03:35:13.166Z,23.31
2019-06-10T03:37:42.488Z,23.96
2019-06-10T03:40:13.102Z,24.61
2019-06-10T03:42:42.733Z,25.03
2019-06-10T03:45:12.598Z,25.60
2019-06-10T03:47:42.771Z,26.23
2019-06-10T03:50:13.239Z,26.82
2019-06-10T03:52:43.167Z,27.41
2019-06-10T03:55:12.469Z,27.38
2019-06-10T03:57:42.324Z,27.07
2019-06-10T04:00:13.908Z,27.27
2019-06-10T04:02:43.029Z,27.98
2019-06-10T04:05:13.340Z,28.51
2019-06-10T04:07:42.772Z,28.68
2019-06-10T04:10:12.675Z,29.22
2019-06-10T04:12:43.474Z,29.71
2019-06-10T04:15:12.417Z,30.30
2019-06-10T04:17:42.765Z,30.33
2019-06-10T04:20:14.982Z,31.18
2019-06-10T04:22:44.347Z,30.87
2019-06-10T04:25:12.715Z,31.00
2019-06-10T04:27:42.430Z,31.37
2019-06-10T04:30:12.454Z,31.81
2019-06-10T04:32:42.909Z,32.04
2019-06-10T04:35:12.652Z,31.09
2019-06-10T04:37:42.876Z,30.19
2019-06-10T04:40:13.366Z,30.82
2019-06-10T04:42:43.628Z,31.47
2019-06-10T04:45:14.877Z,31.81
2019-06-10T04:47:43.430Z,32.21
2019-06-10T04:50:24.052Z,32.98
2019-06-10T04:52:43.092Z,32.99
2019-06-10T04:55:12.709Z,32.62
2019-06-10T04:57:43.060Z,32.56
2019-06-10T05:00:14.696Z,33.33
2019-06-10T05:02:43.126Z,33.55
2019-06-10T05:05:13.120Z,33.41
2019-06-10T05:07:42.813Z,33.82
2019-06-10T05:10:12.505Z,34.28
2019-06-10T05:12:43.346Z,34.62
2019-06-10T05:15:12.670Z,34.37
2019-06-10T05:17:43.715Z,34.18
2019-06-10T05:20:12.700Z,34.93
2019-06-10T05:22:42.362Z,35.49
2019-06-10T05:25:12.842Z,35.67
2019-06-10T05:27:43.006Z,36.12
2019-06-10T05:30:12.338Z,36.48
2019-06-10T05:32:43.222Z,36.38
2019-06-10T05:35:12.353Z,37.09
2019-06-10T05:37:42.292Z,37.47
2019-06-10T05:40:12.908Z,37.29
2019-06-10T05:42:42.627Z,35.32
2019-06-10T05:45:12.265Z,32.94
2019-06-10T05:47:42.776Z,34.33
2019-06-10T05:50:12.920Z,34.09
2019-06-10T05:52:42.699Z,34.90
2019-06-10T05:55:12.260Z,34.87
2019-06-10T05:57:42.898Z,35.01
2019-06-10T06:00:14.817Z,33.71
2019-06-10T06:02:43.246Z,31.92
2019-06-10T06:05:12.943Z,31.79
2019-06-10T06:07:42.371Z,32.90
2019-06-10T06:10:12.986Z,34.47
2019-06-10T06:12:42.477Z,32.19
2019-06-10T06:15:12.928Z,30.76
2019-06-10T06:17:43.219Z,31.37
2019-06-10T06:20:13.338Z,32.65
2019-06-10T06:22:42.831Z,33.59
2019-06-10T06:25:15.326Z,34.38
2019-06-10T06:27:42.245Z,33.14
2019-06-10T06:30:18.499Z,33.22
2019-06-10T06:32:43.716Z,33.19
2019-06-10T06:35:13.145Z,32.79
2019-06-10T06:37:42.819Z,32.87
2019-06-10T06:40:13.219Z,32.20
2019-06-10T06:42:43.300Z,32.07
2019-06-10T06:45:12.740Z,33.02
2019-06-10T06:47:43.742Z,33.96
2019-06-10T06:50:13.177Z,34.96
2019-06-10T06:53:15.272Z,35.12
2019-06-10T06:55:12.808Z,31.81
2019-06-10T06:57:43.348Z,31.03
2019-06-10T07:00:37.304Z,31.34
2019-06-10T07:02:43.611Z,31.72
2019-06-10T07:05:12.895Z,31.31
2019-06-10T07:07:43.406Z,30.86
2019-06-10T07:10:12.422Z,30.32
2019-06-10T07:12:43.920Z,30.39
2019-06-10T07:15:13.071Z,29.59
2019-06-10T07:17:45.172Z,30.41
2019-06-10T07:20:12.658Z,30.21
2019-06-10T07:22:42.730Z,30.63
2019-06-10T07:25:12.335Z,29.22
2019-06-10T07:27:45.100Z,28.15
2019-06-10T07:30:14.822Z,26.93
2019-06-10T07:32:46.829Z,26.64
2019-06-10T07:35:12.958Z,27.04
2019-06-10T07:37:44.419Z,27.29
2019-06-10T07:40:13.063Z,26.52
2019-06-10T07:42:43.768Z,26.20
2019-06-10T07:45:13.040Z,25.72
2019-06-10T07:47:44.243Z,25.38
2019-06-10T07:50:12.576Z,26.01
2019-06-10T07:52:45.042Z,24.90
2019-06-10T07:55:12.866Z,24.90
2019-06-10T07:57:43.838Z,25.15
2019-06-10T08:00:14.184Z,26.12
2019-06-10T08:02:44.659Z,26.88
2019-06-10T08:05:13.293Z,26.45
2019-06-10T08:07:44.085Z,26.43
2019-06-10T08:10:13.806Z,27.37
2019-06-10T08:12:44.775Z,27.43
2019-06-10T08:15:13.003Z,27.33
2019-06-10T08:17:42.963Z,25.57
2019-06-10T08:20:13.378Z,25.83
2019-06-10T08:22:50.755Z,26.16
2019-06-10T08:25:12.709Z,26.20
2019-06-10T08:27:43.962Z,25.60
2019-06-10T08:30:18.583Z,25.28
2019-06-10T08:32:46.348Z,25.44
2019-06-10T08:35:12.907Z,25.97
2019-06-10T08:37:43.183Z,25.79
2019-06-10T08:40:12.421Z,26.13
2019-06-10T08:42:43.688Z,27.42
2019-06-10T08:45:12.501Z,26.36
2019-06-10T08:47:44.305Z,27.25
2019-06-10T08:50:12.941Z,28.11
2019-06-10T08:52:53.792Z,28.41
2019-06-10T08:55:12.689Z,28.90
2019-06-10T08:57:45.259Z,28.33
2019-06-10T09:00:15.497Z,27.79
2019-06-10T09:02:46.793Z,26.95
2019-06-10T09:05:15.777Z,27.17
2019-06-10T09:07:48.039Z,27.17
2019-06-10T09:10:15.077Z,26.77
2019-06-10T09:12:46.080Z,26.52
2019-06-10T09:15:14.565Z,26.40
2019-06-10T09:17:46.718Z,26.01
2019-06-10T09:20:14.012Z,26.09
2019-06-10T09:22:48.213Z,26.04
2019-06-10T09:25:14.920Z,25.63
2019-06-10T09:27:46.593Z,25.84
2019-06-10T09:30:14.733Z,25.83
2019-06-10T09:32:48.412Z,25.61
2019-06-10T09:35:14.499Z,25.76
2019-06-10T09:37:48.394Z,25.55
2019-06-10T09:40:14.175Z,25.29
2019-06-10T09:42:46.257Z,25.19
2019-06-10T09:45:13.804Z,25.79
2019-06-10T09:47:45.629Z,26.02
2019-06-10T09:50:14.285Z,26.11
2019-06-10T09:52:47.450Z,25.76
2019-06-10T09:55:13.631Z,26.06
2019-06-10T09:57:45.124Z,26.41
2019-06-10T10:00:18.431Z,26.92
2019-06-10T10:02:51.290Z,27.11
2019-06-10T10:05:17.463Z,26.51
2019-06-10T10:07:48.911Z,25.70
2019-06-10T10:10:19.417Z,24.62
2019-06-10T10:12:49.475Z,24.38
2019-06-10T10:15:27.523Z,24.36
2019-06-10T10:17:50.787Z,24.77
2019-06-10T10:20:19.099Z,24.71
2019-06-10T10:22:49.244Z,24.68
2019-06-10T10:25:18.110Z,24.55
2019-06-10T10:27:49.514Z,23.82
2019-06-10T10:30:19.956Z,23.14
2019-06-10T10:32:50.477Z,22.94
2019-06-10T10:35:18.790Z,23.47
2019-06-10T10:37:48.516Z,23.76
2019-06-10T10:40:17.106Z,24.20
2019-06-10T10:42:51.572Z,25.02
2019-06-10T10:45:18.121Z,25.25
2019-06-10T10:47:47.024Z,25.26
2019-06-10T10:50:16.662Z,24.98
2019-06-10T10:52:46.776Z,24.66
2019-06-10T10:55:15.914Z,24.44
2019-06-10T10:57:45.206Z,24.07
2019-06-10T11:00:16.328Z,24.05
2019-06-10T11:02:47.128Z,24.26
2019-06-10T11:05:33.421Z,24.14
2019-06-10T11:08:04.193Z,24.12
2019-06-10T11:10:33.011Z,24.10
2019-06-10T11:13:07.896Z,24.29
2019-06-10T11:15:36.515Z,24.41
2019-06-10T11:18:06.772Z,24.15
2019-06-10T11:20:35.436Z,23.81
2019-06-10T11:23:04.327Z,23.90
2019-06-10T11:25:33.321Z,23.70
2019-06-10T11:28:04.056Z,23.83
2019-06-10T11:30:32.587Z,23.65
2019-06-10T11:33:03.333Z,23.86
2019-06-10T11:35:31.597Z,23.89
2019-06-10T11:38:03.240Z,24.11
2019-06-10T11:40:31.608Z,24.11
2019-06-10T11:43:01.125Z,24.08
2019-06-10T11:45:29.762Z,23.71
2019-06-10T11:47:58.365Z,23.68
2019-06-10T11:50:27.663Z,23.65
2019-06-10T11:53:00.277Z,23.82
2019-06-10T11:55:26.650Z,24.22
2019-06-10T11:57:57.574Z,24.41
2019-06-10T12:00:27.695Z,24.38
2019-06-10T12:02:58.575Z,24.74
2019-06-10T12:05:27.186Z,24.78
2019-06-10T12:07:59.520Z,24.48
2019-06-10T12:10:26.026Z,24.26
2019-06-10T12:12:58.108Z,24.16
2019-06-10T12:15:24.980Z,23.63
2019-06-10T12:18:03.186Z,23.47
2019-06-10T12:20:23.875Z,23.46
2019-06-10T12:22:56.533Z,23.45
2019-06-10T12:25:34.711Z,23.31
2019-06-10T12:27:55.857Z,23.19
2019-06-10T12:30:23.622Z,23.36
2019-06-10T12:32:55.647Z,23.63
2019-06-10T12:35:23.128Z,23.81
2019-06-10T12:37:55.037Z,23.97
2019-06-10T12:40:22.325Z,24.19
2019-06-10T12:42:53.124Z,24.64
2019-06-10T12:45:23.331Z,24.50
2019-06-10T12:47:54.779Z,24.50
2019-06-10T12:50:23.825Z,24.82
2019-06-10T12:52:54.599Z,25.00
2019-06-10T12:55:38.411Z,24.28
2019-06-10T12:57:54.317Z,24.05
2019-06-10T13:00:26.392Z,24.45
2019-06-10T13:02:55.211Z,24.69
2019-06-10T13:05:23.968Z,24.69
2019-06-10T13:07:55.472Z,25.08
2019-06-10T13:10:33.383Z,25.10
2019-06-10T13:13:05.664Z,25.27
2019-06-10T13:15:32.821Z,25.31
2019-06-10T13:18:05.771Z,25.39
2019-06-10T13:20:32.246Z,25.68
2019-06-10T13:23:09.424Z,25.56
2019-06-10T13:25:33.376Z,25.92
2019-06-10T13:28:04.198Z,25.71
2019-06-10T13:30:34.331Z,25.51
2019-06-10T13:33:06.377Z,25.43
2019-06-10T13:35:32.633Z,25.19
2019-06-10T13:38:03.684Z,24.70
2019-06-10T13:40:32.047Z,24.50
2019-06-10T13:43:01.740Z,24.65
2019-06-10T13:45:33.070Z,24.41
2019-06-10T13:48:04.324Z,24.35
2019-06-10T13:50:32.856Z,24.36
2019-06-10T13:53:03.782Z,24.33
2019-06-10T13:55:32.870Z,24.10
2019-06-10T13:58:03.947Z,24.11
2019-06-10T14:00:45.796Z,23.11
2019-06-10T14:03:05.091Z,22.15
2019-06-10T14:05:34.395Z,21.59
2019-06-10T14:08:06.734Z,21.21
2019-06-10T14:10:33.535Z,21.12
2019-06-10T14:13:03.990Z,21.16
2019-06-10T14:15:33.045Z,21.25
2019-06-10T14:18:04.008Z,21.37
2019-06-10T14:20:32.621Z,21.60
2019-06-10T14:23:02.499Z,21.78
2019-06-10T14:25:33.047Z,22.06
2019-06-10T14:28:05.208Z,21.98
2019-06-10T14:30:32.407Z,22.21
2019-06-10T14:33:02.796Z,22.30
2019-06-10T14:35:33.124Z,22.45
2019-06-10T14:38:04.421Z,22.35
2019-06-10T14:40:32.565Z,22.26
2019-06-10T14:43:01.162Z,22.38
2019-06-10T14:45:29.830Z,22.42
2019-06-10T14:47:58.894Z,22.45
2019-06-10T14:50:27.527Z,22.31
2019-06-10T14:52:56.199Z,22.31
2019-06-10T14:55:24.770Z,22.15
2019-06-10T14:57:53.398Z,22.19
2019-06-10T15:00:23.658Z,22.28
2019-06-10T15:02:53.803Z,22.26
2019-06-10T15:05:23.297Z,22.60
2019-06-10T15:07:52.888Z,22.54
2019-06-10T15:10:23.359Z,22.61
2019-06-10T15:12:52.858Z,22.64
2019-06-10T15:15:23.654Z,22.71
2019-06-10T15:17:52.668Z,22.73
2019-06-10T15:20:22.759Z,22.89
2019-06-10T15:22:52.685Z,22.95
2019-06-10T15:25:27.814Z,22.97
2019-06-10T15:27:52.659Z,23.02
2019-06-10T15:30:27.211Z,23.07
2019-06-10T15:32:52.416Z,23.18
2019-06-10T15:35:24.322Z,23.14
2019-06-10T15:37:52.764Z,23.48
2019-06-10T15:40:23.061Z,23.48
2019-06-10T15:42:53.277Z,23.54
2019-06-10T15:45:22.215Z,23.61
2019-06-10T15:47:52.995Z,23.63
2019-06-10T15:50:23.492Z,23.75
2019-06-10T15:52:52.534Z,23.73
2019-06-10T15:55:40.709Z,23.65
2019-06-10T15:57:54.158Z,23.48
2019-06-10T16:00:28.596Z,23.17
2019-06-10T16:02:52.502Z,23.07
2019-06-10T16:05:24.838Z,23.03
2019-06-10T16:07:52.986Z,22.98
2019-06-10T16:10:27.400Z,22.88
2019-06-10T16:12:52.751Z,22.74
2019-06-10T16:15:26.104Z,22.76
2019-06-10T16:17:53.584Z,22.83
2019-06-10T16:20:23.559Z,22.88
2019-06-10T16:22:52.518Z,22.80
2019-06-10T16:25:24.550Z,22.66
2019-06-10T16:27:54.319Z,22.63
2019-06-10T16:30:23.254Z,22.60
2019-06-10T16:32:52.967Z,22.46
2019-06-10T16:35:23.937Z,22.36
2019-06-10T16:37:54.554Z,22.28
2019-06-10T16:40:24.288Z,22.22
2019-06-10T16:42:53.358Z,22.19
2019-06-10T16:45:27.597Z,22.10
2019-06-10T16:47:53.090Z,21.93
2019-06-10T16:50:23.829Z,21.85
2019-06-10T16:52:53.565Z,21.71
2019-06-10T16:55:24.190Z,21.63
2019-06-10T16:57:59.473Z,21.50
2019-06-10T17:00:25.938Z,21.48
2019-06-10T17:02:53.484Z,21.43
2019-06-10T17:05:25.136Z,21.34
2019-06-10T17:07:52.766Z,21.26
2019-06-10T17:10:21.945Z,21.19
2019-06-10T17:13:03.205Z,21.16
2019-06-10T17:15:31.975Z,21.17
2019-06-10T17:18:02.768Z,21.15
2019-06-10T17:20:33.824Z,21.16
2019-06-10T17:23:03.264Z,21.16
2019-06-10T17:25:33.829Z,21.12
2019-06-10T17:28:17.768Z,21.07
2019-06-10T17:30:34.758Z,21.01
2019-06-10T17:33:03.211Z,21.04
2019-06-10T17:35:36.593Z,21.06
2019-06-10T17:38:02.742Z,21.03
2019-06-10T17:40:33.639Z,21.08
2019-06-10T17:43:02.434Z,21.10
2019-06-10T17:45:32.169Z,21.11
2019-06-10T17:51:25.933Z,21.17
2019-06-10T17:53:53.260Z,21.17
2019-06-10T17:56:23.096Z,21.11
2019-06-10T17:58:57.638Z,20.99
2019-06-10T18:01:24.234Z,20.99
2019-06-10T18:03:53.120Z,21.04
2019-06-10T18:06:23.823Z,21.11
2019-06-10T18:08:52.696Z,21.19
2019-06-10T18:11:24.348Z,21.27
2019-06-10T18:13:51.798Z,21.21
2019-06-10T18:16:22.814Z,21.28
2019-06-10T18:18:52.445Z,21.23
2019-06-10T18:21:22.382Z,21.04
2019-06-10T18:23:52.899Z,20.94
2019-06-10T18:26:39.131Z,20.90
2019-06-10T18:29:09.268Z,20.85
2019-06-10T18:31:38.249Z,20.81
2019-06-10T18:34:06.845Z,20.70
2019-06-10T18:36:36.289Z,20.76
2019-06-10T18:39:07.076Z,20.70
2019-06-10T18:41:35.834Z,20.71
2019-06-10T18:44:18.919Z,20.65
2019-06-10T18:46:36.431Z,20.70
2019-06-10T18:49:05.500Z,20.71
2019-06-10T18:51:36.034Z,20.70
2019-06-10T18:54:04.531Z,20.65
2019-06-10T18:56:35.289Z,20.53
2019-06-10T18:59:15.804Z,20.62
2019-06-10T19:01:34.400Z,20.59
2019-06-10T19:04:03.038Z,20.50
2019-06-10T19:06:33.789Z,20.31
2019-06-10T19:09:03.265Z,20.22
2019-06-10T19:11:34.096Z,20.33
2019-06-10T19:14:03.309Z,20.34
2019-06-10T19:16:34.162Z,20.26
2019-06-10T19:19:02.827Z,20.27
2019-06-10T19:21:32.392Z,20.25
2019-06-10T19:24:03.098Z,20.16
2019-06-10T19:26:33.980Z,20.16
2019-06-10T19:29:03.807Z,20.20
2019-06-10T19:31:36.051Z,20.20
2019-06-10T19:34:03.363Z,20.22
2019-06-10T19:36:32.086Z,20.31
2019-06-10T19:39:02.319Z,20.29
2019-06-10T19:41:35.747Z,20.23
2019-06-10T19:44:02.515Z,20.16
2019-06-10T19:46:33.384Z,20.16
2019-06-10T19:49:04.043Z,20.27
2019-06-10T19:51:32.906Z,20.27
2019-06-10T19:54:03.523Z,20.16
2019-06-10T19:56:33.041Z,20.07
2019-06-10T19:59:01.669Z,20.19
2019-06-10T20:01:33.304Z,20.13
2019-06-10T20:04:02.645Z,20.15
2019-06-10T20:06:32.245Z,20.16
2019-06-10T20:09:02.720Z,20.03
2019-06-10T20:11:32.216Z,19.90
2019-06-10T20:14:02.569Z,19.91
2019-06-10T20:16:31.326Z,20.05
2019-06-10T20:19:02.852Z,20.05
2019-06-10T20:21:32.859Z,20.04
2019-06-10T20:24:02.814Z,20.16
2019-06-10T20:26:32.949Z,20.17
2019-06-10T20:29:03.838Z,20.18
2019-06-10T20:31:32.521Z,20.18
2019-06-10T20:34:02.633Z,20.23
2019-06-10T20:36:33.471Z,20.12
2019-06-10T20:39:01.941Z,20.01
2019-06-10T20:41:30.541Z,19.93
2019-06-10T20:43:59.105Z,19.56
2019-06-10T20:46:27.868Z,19.17
2019-06-10T20:48:56.527Z,18.89
2019-06-10T20:51:27.274Z,18.72
2019-06-10T20:53:55.437Z,18.54
2019-06-10T20:56:24.072Z,18.43
2019-06-10T20:58:52.674Z,18.31
2019-06-10T21:01:25.352Z,18.15
2019-06-10T21:03:53.991Z,17.92
2019-06-10T21:06:24.275Z,17.77
2019-06-10T21:08:54.980Z,17.67
2019-06-10T21:11:23.808Z,17.53
2019-06-10T21:13:55.505Z,17.49
2019-06-10T21:16:23.045Z,17.36
2019-06-10T21:18:55.500Z,17.33
2019-06-10T21:21:22.770Z,17.23
2019-06-10T21:23:53.907Z,17.24
2019-06-10T21:26:23.582Z,17.16
2019-06-10T21:28:54.927Z,17.18
2019-06-10T21:31:22.534Z,17.24
2019-06-10T21:33:55.402Z,17.34
2019-06-10T21:36:22.989Z,17.44
2019-06-10T21:38:55.428Z,17.44
2019-06-10T21:41:22.710Z,17.42
2019-06-10T21:43:57.562Z,17.38
2019-06-10T21:46:22.643Z,17.37
2019-06-10T21:48:53.187Z,17.41
2019-06-10T21:51:22.844Z,17.42
2019-06-10T21:53:53.756Z,17.51
2019-06-10T21:56:22.605Z,17.53
2019-06-10T21:58:53.647Z,17.50
2019-06-10T22:01:22.559Z,17.48
2019-06-10T22:04:00.214Z,17.51
2019-06-10T22:06:22.804Z,17.55
2019-06-10T22:08:54.517Z,17.57
2019-06-10T22:11:23.447Z,17.57
2019-06-10T22:13:53.297Z,17.60
2019-06-10T22:16:22.766Z,17.61
2019-06-10T22:18:52.595Z,17.57
2019-06-10T22:21:22.655Z,17.53
2019-06-10T22:23:53.987Z,17.52
2019-06-10T22:26:22.538Z,17.42
2019-06-10T22:28:54.171Z,17.35
2019-06-10T22:31:23.656Z,17.40
2019-06-10T22:33:54.273Z,17.31
2019-06-10T22:36:23.206Z,17.28
2019-06-10T22:38:55.820Z,17.31
2019-06-10T22:41:22.675Z,17.30
2019-06-10T22:43:52.245Z,17.25
2019-06-10T22:46:23.196Z,17.22
2019-06-10T22:48:53.419Z,17.10
2019-06-10T22:51:22.806Z,17.15
2019-06-10T22:53:54.546Z,17.06
2019-06-10T22:56:21.954Z,17.06
2019-06-10T22:58:54.042Z,17.06
2019-06-10T23:01:33.634Z,17.12
2019-06-10T23:03:52.121Z,17.07
2019-06-10T23:06:23.027Z,17.10
2019-06-10T23:08:54.698Z,17.09
2019-06-10T23:11:23.857Z,17.01
2019-06-10T23:13:54.711Z,16.95
2019-06-10T23:16:22.298Z,17.01
2019-06-10T23:18:53.607Z,16.93
2019-06-10T23:21:21.378Z,16.84
2019-06-10T23:23:52.200Z,16.76
2019-06-10T23:26:22.555Z,16.71
2019-06-10T23:28:54.077Z,16.71
2019-06-10T23:31:23.004Z,16.78
2019-06-10T23:33:56.056Z,16.79
2019-06-10T23:36:23.549Z,16.86
2019-06-10T23:38:52.795Z,16.91
2019-06-10T23:41:22.355Z,16.98
2019-06-10T23:43:51.246Z,17.06
2019-06-10T23:46:19.737Z,17.00
2019-06-10T23:48:48.337Z,16.96
2019-06-10T23:51:16.975Z,16.94
2019-06-10T23:53:45.601Z,16.99
2019-06-10T23:56:14.301Z,16.91
2019-06-10T23:58:43.387Z,16.97
